createdAt,value
2019-01-29T00:00:00.954Z,6.80
2019-01-29T00:02:33.292Z,7.80
2019-01-29T00:05:05.329Z,9.23
2019-01-29T00:07:36.536Z,8.10
2019-01-29T00:10:10.323Z,9.00
2019-01-29T00:12:41.512Z,7.20
2019-01-29T00:15:12.993Z,7.60
2019-01-29T00:17:44.270Z,7.03
2019-01-29T00:20:15.849Z,6.50
2019-01-29T00:22:47.093Z,7.30
2019-01-29T00:25:18.671Z,7.60
2019-01-29T00:27:49.791Z,8.63
2019-01-29T00:30:21.102Z,8.60
2019-01-29T00:32:52.303Z,8.27
2019-01-29T00:35:24.023Z,7.30
2019-01-29T00:37:55.225Z,6.70
2019-01-29T00:40:26.515Z,8.50
2019-01-29T00:42:57.799Z,6.13
2019-01-29T00:45:29.011Z,5.20
2019-01-29T00:48:01.590Z,6.83
2019-01-29T00:50:32.834Z,7.60
2019-01-29T00:53:04.130Z,6.80
2019-01-29T00:55:41.721Z,7.67
2019-01-29T00:58:12.992Z,6.23
2019-01-29T01:00:44.271Z,8.33
2019-01-29T01:03:15.595Z,7.20
2019-01-29T01:05:46.985Z,8.23
2019-01-29T01:08:18.322Z,5.70
2019-01-29T01:10:49.579Z,5.73
2019-01-29T01:13:20.897Z,4.70
2019-01-29T01:15:52.112Z,5.10
2019-01-29T01:18:23.408Z,5.20
2019-01-29T01:20:54.878Z,5.37
2019-01-29T01:23:26.216Z,4.80
2019-01-29T01:25:58.533Z,5.80
2019-01-29T01:28:29.801Z,5.40
2019-01-29T01:31:01.151Z,4.80
2019-01-29T01:33:32.381Z,4.97
2019-01-29T01:36:03.625Z,5.70
2019-01-29T01:38:34.883Z,4.73
2019-01-29T01:41:06.290Z,6.03
2019-01-29T01:43:37.545Z,5.50
2019-01-29T01:46:08.873Z,4.97
2019-01-29T01:48:40.197Z,6.70
2019-01-29T01:51:11.367Z,6.27
2019-01-29T01:53:42.674Z,6.50
2019-01-29T01:56:13.949Z,5.57
2019-01-29T01:58:45.218Z,8.20
2019-01-29T02:01:16.610Z,6.93
2019-01-29T02:03:47.880Z,7.90
2019-01-29T02:06:19.060Z,8.43
2019-01-29T02:08:50.308Z,9.17
2019-01-29T02:11:21.709Z,8.57
2019-01-29T02:13:53.102Z,9.40
2019-01-29T02:16:24.364Z,10.40
2019-01-29T02:18:55.591Z,10.30
2019-01-29T02:21:26.832Z,11.00
2019-01-29T02:23:58.137Z,12.30
2019-01-29T02:26:29.343Z,12.60
2019-01-29T02:29:00.641Z,12.23
2019-01-29T02:31:31.868Z,14.07
2019-01-29T02:34:03.076Z,12.97
2019-01-29T02:36:34.422Z,12.37
2019-01-29T02:39:08.508Z,12.00
2019-01-29T02:41:39.788Z,13.17
2019-01-29T02:44:10.992Z,11.87
2019-01-29T02:46:42.274Z,9.93
2019-01-29T02:49:13.538Z,12.87
2019-01-29T02:51:45.261Z,10.50
2019-01-29T02:54:16.787Z,11.40
2019-01-29T02:56:48.151Z,9.33
2019-01-29T02:59:19.396Z,10.40
2019-01-29T03:01:50.649Z,9.67
2019-01-29T03:04:21.962Z,9.90
2019-01-29T03:06:53.229Z,10.80
2019-01-29T03:09:24.524Z,10.20
2019-01-29T03:11:55.800Z,10.67
2019-01-29T03:14:26.982Z,10.10
2019-01-29T03:16:58.234Z,10.10
2019-01-29T03:19:29.459Z,10.37
2019-01-29T03:22:00.616Z,10.70
2019-01-29T03:24:31.907Z,9.77
2019-01-29T03:27:03.115Z,10.10
2019-01-29T03:29:34.313Z,10.17
2019-01-29T03:32:05.597Z,9.70
2019-01-29T03:34:36.864Z,9.40
2019-01-29T03:37:08.204Z,10.13
2019-01-29T03:39:39.507Z,11.03
2019-01-29T03:42:10.704Z,9.90
2019-01-29T03:44:42.106Z,9.80
2019-01-29T03:47:13.385Z,10.57
2019-01-29T03:49:44.631Z,10.97
2019-01-29T03:52:15.828Z,9.70
2019-01-29T03:54:47.205Z,10.13
2019-01-29T03:57:19.058Z,9.80
2019-01-29T03:59:50.411Z,11.50
2019-01-29T04:02:21.598Z,10.70
2019-01-29T04:04:52.878Z,10.40
2019-01-29T04:07:24.086Z,12.03
2019-01-29T04:09:55.317Z,11.10
2019-01-29T04:12:26.540Z,11.80
2019-01-29T04:14:57.709Z,12.30
2019-01-29T04:17:28.918Z,13.37
2019-01-29T04:20:00.282Z,13.80
2019-01-29T04:22:31.565Z,14.20
2019-01-29T04:25:02.799Z,14.67
2019-01-29T04:27:34.106Z,14.30
2019-01-29T04:30:06.771Z,15.10
2019-01-29T04:32:41.135Z,14.40
2019-01-29T04:35:12.610Z,16.10
2019-01-29T04:37:44.167Z,16.70
2019-01-29T04:40:18.229Z,15.40
2019-01-29T04:42:49.843Z,13.50
2019-01-29T04:45:21.238Z,15.90
2019-01-29T04:47:52.518Z,17.43
2019-01-29T04:50:24.838Z,15.80
2019-01-29T04:52:56.102Z,16.87
2019-01-29T04:55:27.362Z,16.67
2019-01-29T04:57:58.674Z,16.07
2019-01-29T05:00:30.407Z,17.70
2019-01-29T05:03:01.657Z,17.20
2019-01-29T05:05:32.931Z,17.97
2019-01-29T05:08:04.262Z,19.57
2019-01-29T05:10:35.478Z,20.07
2019-01-29T05:13:06.747Z,18.60
2019-01-29T05:15:37.941Z,18.37
2019-01-29T05:18:09.149Z,15.27
2019-01-29T05:20:40.260Z,16.40
2019-01-29T05:23:11.650Z,16.87
2019-01-29T05:25:44.877Z,14.97
2019-01-29T05:28:15.996Z,15.50
2019-01-29T05:30:47.264Z,19.70
2019-01-29T05:33:19.077Z,16.57
2019-01-29T05:35:50.328Z,14.93
2019-01-29T05:38:21.779Z,14.70
2019-01-29T05:40:58.673Z,16.60
2019-01-29T05:43:30.050Z,13.33
2019-01-29T05:46:01.310Z,13.97
2019-01-29T05:48:32.587Z,15.93
2019-01-29T05:51:03.845Z,14.97
2019-01-29T05:53:35.122Z,13.23
2019-01-29T05:56:06.563Z,16.90
2019-01-29T05:58:37.878Z,15.90
2019-01-29T06:01:09.139Z,15.27
2019-01-29T06:03:40.410Z,17.03
2019-01-29T06:06:11.795Z,15.17
2019-01-29T06:08:46.538Z,17.00
2019-01-29T06:11:17.759Z,16.47
2019-01-29T06:13:48.901Z,16.07
2019-01-29T06:16:20.466Z,15.63
2019-01-29T06:18:51.654Z,17.37
2019-01-29T06:21:22.874Z,16.40
2019-01-29T06:23:54.151Z,17.20
2019-01-29T06:26:25.417Z,18.30
2019-01-29T06:28:56.714Z,19.30
2019-01-29T06:31:28.262Z,18.87
2019-01-29T06:33:59.499Z,19.23
2019-01-29T06:36:32.218Z,20.50
2019-01-29T06:39:03.831Z,19.87
2019-01-29T06:41:35.115Z,21.83
2019-01-29T06:44:06.368Z,23.20
2019-01-29T06:46:39.361Z,21.20
2019-01-29T06:49:10.748Z,20.23
2019-01-29T06:51:42.025Z,24.23
2019-01-29T06:54:13.296Z,23.83
2019-01-29T06:56:44.661Z,23.80
2019-01-29T06:59:15.960Z,23.77
2019-01-29T07:01:47.203Z,24.60
2019-01-29T07:04:18.499Z,22.30
2019-01-29T07:06:49.794Z,23.70
2019-01-29T07:09:21.080Z,23.93
2019-01-29T07:12:02.754Z,22.30
2019-01-29T07:14:34.161Z,22.80
2019-01-29T07:17:24.438Z,24.47
2019-01-29T07:19:58.170Z,23.30
2019-01-29T07:22:32.630Z,25.70
2019-01-29T07:25:03.943Z,26.97
2019-01-29T07:27:35.309Z,22.60
2019-01-29T07:30:09.127Z,24.27
2019-01-29T07:32:40.604Z,25.77
2019-01-29T07:35:12.490Z,23.63
2019-01-29T07:37:43.798Z,25.30
2019-01-29T07:40:15.432Z,22.83
2019-01-29T07:42:47.482Z,24.60
2019-01-29T07:45:19.131Z,24.70
2019-01-29T07:47:50.428Z,24.20
2019-01-29T07:50:21.738Z,23.00
2019-01-29T07:52:53.132Z,26.10
2019-01-29T07:55:24.443Z,23.50
2019-01-29T07:57:55.826Z,23.50
2019-01-29T08:00:27.430Z,23.90
2019-01-29T08:02:59.139Z,24.77
2019-01-29T08:05:31.525Z,24.53
2019-01-29T08:08:02.839Z,25.10
2019-01-29T08:10:34.404Z,21.97
2019-01-29T08:13:05.699Z,24.83
2019-01-29T08:15:37.475Z,25.63
2019-01-29T08:18:10.170Z,27.40
2019-01-29T08:20:41.864Z,25.67
2019-01-29T08:23:13.174Z,25.37
2019-01-29T08:25:50.609Z,25.23
2019-01-29T08:28:21.916Z,25.27
2019-01-29T08:30:53.216Z,26.77
2019-01-29T08:33:24.495Z,25.40
2019-01-29T08:35:58.154Z,27.40
2019-01-29T08:38:29.416Z,27.10
2019-01-29T08:41:00.856Z,25.20
2019-01-29T08:43:35.124Z,24.93
2019-01-29T08:46:07.951Z,26.40
2019-01-29T08:48:40.973Z,24.93
2019-01-29T08:51:14.297Z,21.90
2019-01-29T08:53:48.003Z,23.60
2019-01-29T08:56:24.632Z,24.57
2019-01-29T08:58:56.002Z,22.33
2019-01-29T09:01:34.262Z,21.80
2019-01-29T09:04:06.642Z,22.80
2019-01-29T09:06:37.836Z,22.20
2019-01-29T09:09:14.437Z,23.30
2019-01-29T09:11:46.539Z,21.23
2019-01-29T09:14:18.437Z,22.03
2019-01-29T09:16:55.674Z,21.70
2019-01-29T09:19:27.131Z,22.00
2019-01-29T09:21:58.449Z,21.90
2019-01-29T09:24:29.702Z,21.90
2019-01-29T09:27:03.914Z,23.83
2019-01-29T09:29:35.180Z,23.00
2019-01-29T09:32:07.501Z,23.57
2019-01-29T09:34:40.296Z,21.17
2019-01-29T09:37:11.532Z,21.00
2019-01-29T09:39:45.316Z,23.90
2019-01-29T09:42:16.628Z,21.50
2019-01-29T09:44:47.840Z,22.40
2019-01-29T09:47:19.182Z,20.50
2019-01-29T09:49:50.422Z,17.00
2019-01-29T09:52:21.761Z,19.47
2019-01-29T09:54:52.900Z,20.43
2019-01-29T09:57:24.206Z,17.70
2019-01-29T09:59:55.382Z,20.10
2019-01-29T10:02:26.592Z,17.23
2019-01-29T10:04:57.876Z,18.70
2019-01-29T10:07:29.256Z,18.00
2019-01-29T10:10:00.581Z,17.37
2019-01-29T10:12:31.819Z,16.33
2019-01-29T10:15:03.090Z,17.00
2019-01-29T10:17:34.408Z,15.63
2019-01-29T10:20:06.606Z,14.90
2019-01-29T10:22:37.846Z,14.13
2019-01-29T10:25:11.596Z,15.70
2019-01-29T10:27:42.903Z,15.87
2019-01-29T10:30:15.478Z,16.90
2019-01-29T10:32:46.780Z,15.03
2019-01-29T10:35:20.175Z,16.50
2019-01-29T10:37:51.622Z,14.63
2019-01-29T10:40:24.978Z,15.30
2019-01-29T10:42:57.747Z,13.27
2019-01-29T10:45:30.834Z,13.70
2019-01-29T10:48:03.436Z,11.57
2019-01-29T10:50:35.004Z,11.57
2019-01-29T10:53:06.634Z,12.80
2019-01-29T10:55:46.746Z,12.07
2019-01-29T10:58:10.766Z,12.23
2019-01-29T11:00:43.453Z,11.73
2019-01-29T11:03:15.159Z,13.17
2019-01-29T11:05:46.482Z,13.57
2019-01-29T11:08:17.755Z,10.90
2019-01-29T11:10:55.578Z,12.20
2019-01-29T11:13:27.105Z,12.87
2019-01-29T11:15:58.506Z,11.57
2019-01-29T11:18:29.774Z,11.87
2019-01-29T11:21:01.202Z,10.73
2019-01-29T11:23:32.474Z,11.80
2019-01-29T11:26:03.811Z,12.57
2019-01-29T11:28:35.131Z,13.00
2019-01-29T11:31:07.378Z,12.70
2019-01-29T11:33:38.667Z,12.73
2019-01-29T11:36:09.897Z,13.13
2019-01-29T11:38:41.192Z,11.60
2019-01-29T11:41:12.516Z,10.53
2019-01-29T11:43:43.769Z,11.47
2019-01-29T11:46:15.219Z,11.10
2019-01-29T11:48:46.496Z,12.10
2019-01-29T11:51:17.822Z,9.60
2019-01-29T11:53:49.053Z,11.00
2019-01-29T11:56:20.315Z,9.80
2019-01-29T11:58:51.597Z,9.27
2019-01-29T12:01:25.865Z,10.63
2019-01-29T12:03:57.146Z,9.20
2019-01-29T12:06:28.510Z,9.43
2019-01-29T12:08:59.808Z,10.80
2019-01-29T12:11:31.094Z,8.77
2019-01-29T12:14:02.401Z,9.20
2019-01-29T12:16:33.664Z,7.80
2019-01-29T12:19:04.952Z,8.80
2019-01-29T12:21:36.218Z,7.30
2019-01-29T12:24:07.534Z,5.90
2019-01-29T12:26:38.818Z,5.73
2019-01-29T12:29:10.249Z,6.87
2019-01-29T12:31:41.591Z,5.10
2019-01-29T12:34:12.932Z,4.97
2019-01-29T12:36:44.127Z,5.17
2019-01-29T12:39:15.408Z,4.80
2019-01-29T12:41:46.713Z,6.10
2019-01-29T12:44:18.024Z,6.00
2019-01-29T12:46:49.268Z,6.30
2019-01-29T12:49:20.557Z,5.90
2019-01-29T12:52:13.767Z,6.60
2019-01-29T12:54:45.120Z,4.83
2019-01-29T12:57:16.503Z,5.67
2019-01-29T12:59:47.774Z,5.70
2019-01-29T13:02:19.011Z,4.87
2019-01-29T13:04:50.302Z,4.40
2019-01-29T13:07:21.550Z,4.43
2019-01-29T13:09:52.811Z,4.60
2019-01-29T13:12:24.111Z,3.17
2019-01-29T13:14:55.259Z,3.73
2019-01-29T13:17:26.633Z,3.60
2019-01-29T13:19:57.891Z,4.07
2019-01-29T13:22:29.196Z,3.30
2019-01-29T13:25:00.446Z,3.33
2019-01-29T13:27:31.665Z,2.90
2019-01-29T13:30:02.920Z,2.17
2019-01-29T13:32:34.122Z,2.63
2019-01-29T13:35:05.934Z,3.90
2019-01-29T13:37:37.196Z,2.73
2019-01-29T13:40:12.406Z,2.63
2019-01-29T13:42:43.890Z,3.90
2019-01-29T13:45:15.722Z,3.50
2019-01-29T13:47:46.965Z,3.03
2019-01-29T13:50:24.194Z,2.60
2019-01-29T13:52:55.421Z,2.50
2019-01-29T13:55:26.808Z,2.40
2019-01-29T13:57:58.037Z,2.63
2019-01-29T14:00:33.398Z,2.53
2019-01-29T14:03:05.903Z,3.13
2019-01-29T14:05:37.188Z,2.67
2019-01-29T14:08:08.811Z,3.07
2019-01-29T14:10:40.063Z,2.67
2019-01-29T14:13:11.772Z,3.00
2019-01-29T14:15:54.444Z,2.27
2019-01-29T14:18:31.991Z,2.27
2019-01-29T14:21:04.061Z,2.23
2019-01-29T14:23:35.401Z,2.50
2019-01-29T14:26:12.513Z,2.23
2019-01-29T14:28:43.749Z,1.53
2019-01-29T14:31:15.136Z,2.80
2019-01-29T14:33:49.950Z,1.73
2019-01-29T14:36:21.383Z,1.80
2019-01-29T14:39:58.039Z,3.07
2019-01-29T14:42:36.519Z,2.50
2019-01-29T14:45:18.292Z,1.90
2019-01-29T14:47:49.544Z,2.23
2019-01-29T14:50:21.384Z,10.73
2019-01-29T14:52:52.625Z,3.43
2019-01-29T14:55:24.103Z,2.50
2019-01-29T14:57:55.364Z,2.17
2019-01-29T15:00:27.853Z,2.60
2019-01-29T15:02:59.175Z,2.43
2019-01-29T15:05:30.444Z,2.90
2019-01-29T15:08:01.723Z,3.00
2019-01-29T15:10:33.428Z,2.40
2019-01-29T15:13:05.011Z,3.00
2019-01-29T15:15:40.136Z,3.03
2019-01-29T15:18:18.213Z,2.40
2019-01-29T15:20:49.480Z,2.60
2019-01-29T15:23:20.822Z,3.90
2019-01-29T15:25:52.107Z,2.67
2019-01-29T15:28:23.390Z,2.80
2019-01-29T15:30:54.776Z,3.70
2019-01-29T15:33:26.071Z,2.87
2019-01-29T15:35:57.532Z,3.73
2019-01-29T15:38:28.806Z,3.90
2019-01-29T15:41:00.318Z,4.23
2019-01-29T15:43:31.626Z,3.70
2019-01-29T15:46:02.991Z,3.90
2019-01-29T15:48:34.262Z,4.13
2019-01-29T15:51:05.760Z,4.40
2019-01-29T15:53:37.028Z,3.67
2019-01-29T15:56:08.501Z,3.80
2019-01-29T15:58:39.934Z,4.23
2019-01-29T16:01:11.238Z,3.23
2019-01-29T16:03:42.681Z,3.23
2019-01-29T16:06:13.848Z,3.70
2019-01-29T16:08:45.023Z,3.40
2019-01-29T16:11:16.255Z,3.77
2019-01-29T16:13:47.491Z,4.77
2019-01-29T16:16:18.733Z,3.20
2019-01-29T16:18:49.987Z,3.33
2019-01-29T16:21:21.255Z,2.90
2019-01-29T16:23:52.558Z,3.77
2019-01-29T16:26:23.861Z,3.17
2019-01-29T16:28:56.806Z,3.80
2019-01-29T16:31:28.395Z,3.73
2019-01-29T16:33:59.731Z,3.97
2019-01-29T16:36:31.023Z,4.40
2019-01-29T16:39:02.174Z,4.60
2019-01-29T16:41:33.528Z,4.90
2019-01-29T16:44:05.233Z,4.37
2019-01-29T16:46:36.551Z,5.07
2019-01-29T16:49:07.829Z,4.67
2019-01-29T16:51:42.357Z,5.03
2019-01-29T16:54:12.543Z,5.50
2019-01-29T16:56:43.836Z,4.30
2019-01-29T16:59:15.038Z,4.70
2019-01-29T17:01:46.288Z,4.00
2019-01-29T17:04:17.520Z,4.20
2019-01-29T17:06:48.685Z,4.10
2019-01-29T17:09:19.972Z,4.20
2019-01-29T17:11:51.325Z,4.10
2019-01-29T17:14:22.711Z,4.10
2019-01-29T17:16:54.121Z,4.47
2019-01-29T17:19:25.457Z,5.43
2019-01-29T17:21:56.742Z,4.90
2019-01-29T17:24:28.060Z,5.80
2019-01-29T17:26:59.317Z,5.50
2019-01-29T17:29:30.495Z,5.50
2019-01-29T17:32:01.777Z,4.70
2019-01-29T17:34:33.096Z,5.60
2019-01-29T17:37:04.478Z,4.77
2019-01-29T17:39:35.997Z,4.80
2019-01-29T17:42:07.382Z,5.00
2019-01-29T17:44:38.663Z,5.60
2019-01-29T17:47:10.082Z,4.43
2019-01-29T17:49:41.330Z,5.00
2019-01-29T17:52:12.646Z,5.43
2019-01-29T17:54:44.044Z,4.10
2019-01-29T17:57:15.367Z,4.60
2019-01-29T17:59:46.617Z,5.90
2019-01-29T18:02:17.977Z,6.80
2019-01-29T18:04:49.493Z,6.00
2019-01-29T18:07:20.824Z,6.20
2019-01-29T18:09:52.111Z,5.03
2019-01-29T18:12:23.351Z,5.10
2019-01-29T18:14:54.660Z,4.40
2019-01-29T18:17:26.251Z,5.30
2019-01-29T18:19:57.466Z,4.53
2019-01-29T18:22:28.850Z,5.10
2019-01-29T18:25:00.329Z,4.50
2019-01-29T18:27:31.638Z,5.90
2019-01-29T18:30:03.015Z,5.00
2019-01-29T18:32:34.298Z,4.97
2019-01-29T18:35:06.828Z,6.03
2019-01-29T18:37:38.179Z,4.80
2019-01-29T18:40:12.021Z,5.10
2019-01-29T18:42:43.195Z,5.17
2019-01-29T18:45:15.283Z,5.77
2019-01-29T18:47:46.684Z,5.80
2019-01-29T18:50:24.768Z,8.00
2019-01-29T18:52:56.319Z,6.93
2019-01-29T18:55:27.676Z,5.00
2019-01-29T18:57:59.051Z,5.70
2019-01-29T19:00:30.322Z,5.90
2019-01-29T19:03:01.567Z,5.97
2019-01-29T19:05:32.902Z,5.57
2019-01-29T19:08:04.196Z,6.47
2019-01-29T19:10:35.489Z,6.03
2019-01-29T19:13:07.099Z,5.50
2019-01-29T19:15:38.715Z,4.20
2019-01-29T19:18:10.459Z,4.80
2019-01-29T19:20:41.743Z,7.33
2019-01-29T19:23:13.134Z,4.60
2019-01-29T19:25:44.452Z,6.27
2019-01-29T19:28:21.599Z,6.63
2019-01-29T19:30:48.627Z,6.27
2019-01-29T19:33:19.908Z,6.07
2019-01-29T19:35:51.171Z,6.30
2019-01-29T19:38:22.419Z,5.70
2019-01-29T19:40:53.972Z,5.50
2019-01-29T19:43:25.261Z,6.57
2019-01-29T19:45:59.779Z,5.87
2019-01-29T19:48:31.051Z,7.07
2019-01-29T19:51:02.439Z,8.47
2019-01-29T19:53:33.738Z,9.63
2019-01-29T19:56:05.649Z,8.60
2019-01-29T19:58:36.904Z,8.67
2019-01-29T20:01:08.320Z,9.80
2019-01-29T20:03:39.571Z,9.73
2019-01-29T20:06:10.966Z,9.03
2019-01-29T20:08:42.289Z,8.57
2019-01-29T20:11:13.560Z,8.03
2019-01-29T20:13:45.007Z,6.40
2019-01-29T20:16:16.376Z,6.93
2019-01-29T20:18:49.110Z,7.97
2019-01-29T20:21:20.559Z,7.80
2019-01-29T20:23:51.769Z,6.60
2019-01-29T20:26:23.078Z,8.13
2019-01-29T20:28:54.315Z,7.27
2019-01-29T20:31:25.669Z,7.03
2019-01-29T20:33:56.898Z,7.20
2019-01-29T20:36:28.142Z,7.50
2019-01-29T20:38:59.440Z,7.30
2019-01-29T20:41:30.623Z,7.80
2019-01-29T20:44:01.855Z,8.10
2019-01-29T20:46:33.223Z,7.03
2019-01-29T20:49:04.528Z,7.40
2019-01-29T20:51:35.879Z,7.07
2019-01-29T20:54:07.426Z,6.33
2019-01-29T20:56:38.702Z,6.40
2019-01-29T20:59:09.981Z,7.10
2019-01-29T21:01:41.166Z,6.73
2019-01-29T21:04:12.457Z,7.90
2019-01-29T21:06:43.709Z,6.33
2019-01-29T21:09:15.023Z,6.77
2019-01-29T21:11:46.286Z,7.50
2019-01-29T21:14:17.610Z,8.47
2019-01-29T21:16:49.974Z,6.50
2019-01-29T21:19:21.254Z,6.60
2019-01-29T21:21:52.575Z,6.30
2019-01-29T21:24:23.828Z,6.50
2019-01-29T21:26:55.184Z,7.73
2019-01-29T21:29:26.395Z,7.20
2019-01-29T21:31:57.722Z,7.63
2019-01-29T21:34:28.910Z,6.70
2019-01-29T21:37:00.343Z,7.77
2019-01-29T21:39:31.641Z,7.27
2019-01-29T21:42:02.958Z,7.17
2019-01-29T21:44:34.218Z,6.27
2019-01-29T21:47:05.607Z,6.97
2019-01-29T21:49:36.931Z,7.97
2019-01-29T21:52:08.192Z,7.10
2019-01-29T21:54:42.322Z,6.60
2019-01-29T21:57:13.511Z,7.27
2019-01-29T21:59:44.837Z,6.20
2019-01-29T22:02:16.086Z,6.70
2019-01-29T22:04:47.361Z,6.53
2019-01-29T22:07:18.702Z,6.33
2019-01-29T22:09:49.996Z,6.73
2019-01-29T22:12:21.351Z,7.00
2019-01-29T22:14:52.580Z,6.20
2019-01-29T22:17:24.383Z,7.87
2019-01-29T22:19:55.640Z,5.57
2019-01-29T22:22:28.253Z,6.40
2019-01-29T22:24:59.491Z,5.23
2019-01-29T22:27:30.788Z,6.07
2019-01-29T22:30:02.035Z,5.40
2019-01-29T22:32:33.215Z,5.53
2019-01-29T22:35:08.315Z,5.93
2019-01-29T22:37:39.672Z,4.07
2019-01-29T22:40:16.061Z,5.20
2019-01-29T22:42:47.384Z,5.47
2019-01-29T22:45:19.548Z,5.10
2019-01-29T22:47:50.847Z,6.13
2019-01-29T22:50:28.376Z,5.60
2019-01-29T22:52:59.649Z,4.73
2019-01-29T22:55:30.819Z,5.00
2019-01-29T22:58:03.554Z,3.83
2019-01-29T23:01:31.832Z,4.93
2019-01-29T23:04:30.562Z,6.33
2019-01-29T23:07:38.244Z,4.60
2019-01-29T23:10:16.261Z,5.07
2019-01-29T23:12:47.485Z,5.57
2019-01-29T23:15:21.110Z,5.43
2019-01-29T23:17:53.189Z,5.70
2019-01-29T23:20:25.629Z,5.23
2019-01-29T23:22:56.843Z,5.50
2019-01-29T23:25:28.111Z,5.20
2019-01-29T23:27:59.301Z,4.70
2019-01-29T23:30:30.601Z,5.20
2019-01-29T23:33:01.844Z,5.00
2019-01-29T23:35:33.276Z,4.37
2019-01-29T23:38:04.625Z,4.90
2019-01-29T23:40:35.911Z,5.83
2019-01-29T23:43:07.392Z,4.93
2019-01-29T23:45:38.634Z,5.57
2019-01-29T23:48:10.038Z,5.23
2019-01-29T23:50:41.268Z,5.30
2019-01-29T23:53:12.528Z,4.70
2019-01-29T23:55:43.909Z,4.40
2019-01-29T23:58:15.156Z,5.70
